Valle Toledo, Valles Caldera, New Mexico Weather observations

Data are for 10 minute period ending at time listed.
 Day   Time   Solar   Ave.   Ave.  Ave.  Vector  Max.   Baro.   Total    
  of    of     Rad.   Air    Rel.  Wind   Wind   Wind  Press.  Precip.   
Year   Day            Temp.  Hum.  Speed  Dir.   Gust                    
2014   (MST)  Kw/m2    F      %     mph   deg.    mph    mb.     in.     
-------------------------------------------------------------------------
 240   17:30   0.22   63.9    38    6.6   307    11.9   734.5    0.00 
 240   17:40   0.15   63.8    38    5.7   315    10.2   734.5    0.00 
 240   17:50   0.16   63.2    40    4.3   298     9.0   734.6    0.00 
 240   18:00   0.12   63.8    38    5.5   309    11.3   734.7    0.00 
 240   18:10   0.09   63.1    39    4.8   298     7.8   734.7    0.00 
 240   18:20   0.05   61.5    41    4.3   303     6.6   734.7    0.00 
 240   18:30   0.02   60.3    43    3.5   323     6.0   734.8    0.00 
 240   18:40   0.01   57.8    48    3.3   354     5.4   734.9    0.00 
 240   18:50   0.00   55.6    55    3.1    29     5.4   735.0    0.00 
 240   19:00   0.00   54.1    57    3.5    42     4.8   735.1    0.00 
 240   19:10   0.00   53.2    60    3.9    40     5.4   735.1    0.00 
 240   19:20   0.00   52.5    62    4.3    28     6.6   735.2    0.00 
 240   19:30   0.00   52.4    61    4.0    23     5.4   735.2    0.00 
 240   19:40   0.00   52.1    62    3.8    40     5.4   735.4    0.00 
 240   19:50   0.00   51.7    64    2.9    68     4.2   735.5    0.00 
 240   20:00   0.00   51.0    64    2.9    55     4.2   735.5    0.00 
 240   20:10   0.00   50.8    65    3.1    52     4.2   735.5    0.00 
 240   20:20   0.00   50.4    66    3.4    50     4.2   735.5    0.00 
 240   20:30   0.00   50.2    66    3.3    51     4.2   735.5    0.00 
 240   20:40   0.00   50.0    66    3.5    49     4.8   735.6    0.00 
 240   20:50   0.00   49.8    66    3.6    51     4.8   735.6    0.00 
 240   21:00   0.00   49.7    65    3.0    39     4.2   735.7    0.00 
 240   21:10   0.00   49.8    66    3.4    41     4.8   735.8    0.00 
 240   21:20   0.00   49.7    66    3.3    31     4.8   735.8    0.00 
 240   21:30   0.00   49.8    66    2.0    75     3.6   735.9    0.00 
 240   21:40   0.00   49.9    65    2.1    56     3.6   735.9    0.00 
 240   21:50   0.00   49.9    65    0.8   133     3.0   735.9    0.00 
 240   22:00   0.00   49.5    67    2.3    94     4.2   735.9    0.00 
 240   22:10   0.00   49.6    66    2.2    56     4.2   735.9    0.00 
 240   22:20   0.00   49.4    67    1.4    39     4.2   735.9    0.00 
 240   22:30   0.00   49.6    67    2.7    61     3.6   735.8    0.00 
 240   22:40   0.00   49.4    68    2.8    47     3.6   735.8    0.00 
 240   22:50   0.00   50.2    65    2.5    63     3.6   735.8    0.00 
 240   23:00   0.00   49.9    68    2.1   357     3.6   735.8    0.00 
 240   23:10   0.00   49.1    70    3.1    11     3.6   735.8    0.00 
 240   23:20   0.00   49.3    69    1.5    24     3.6   735.8    0.00 
 240   23:30   0.00   49.2    70    2.9   350     4.2   735.8    0.00 
 240   23:40   0.00   49.0    68    3.1     6     4.2   735.8    0.00 
 240   23:50   0.00   48.9    67    3.2    35     4.2   735.8    0.00 
 241    0:00   0.00   48.9    69    2.8    40     4.2   735.8    0.00 
 241    0:10   0.00   48.7    70    2.4    30     3.6   735.8    0.00 
 241    0:20   0.00   48.5    72    1.8   107     3.6   735.8    0.00 
 241    0:30   0.00   49.0    71    3.0    52     4.2   735.8    0.00 
 241    0:40   0.00   49.3    70    1.8    44     3.6   735.7    0.00 
 241    0:50   0.00   49.4    69    0.8   351     3.0   735.7    0.00 
 241    1:00   0.00   49.2    69    2.1    40     3.0   735.6    0.00 
 241    1:10   0.00   49.6    66    2.3    37     3.0   735.6    0.00 
 241    1:20   0.00   49.7    66    2.4    18     4.2   735.5    0.00 
 241    1:30   0.00   49.7    68    2.4    45     3.6   735.5    0.00 
 241    1:40   0.00   49.4    68    2.1   353     4.2   735.5    0.00 
 241    1:50   0.00   49.1    65    2.1    43     3.6   735.5    0.00 
 241    2:00   0.00   48.8    67    2.6    46     3.6   735.5    0.00 
 241    2:10   0.00   48.2    66    2.4    41     4.8   735.4    0.00 
 241    2:20   0.00   47.3    69    3.3     7     4.8   735.4    0.00 
 241    2:30   0.00   46.5    70    3.9    33     4.8   735.3    0.00 
 241    2:40   0.00   46.1    70    3.8    46     5.4   735.2    0.00 
 241    2:50   0.00   45.7    71    3.6    36     5.4   735.1    0.00 
 241    3:00   0.00   45.1    73    4.7    36     5.4   735.1    0.00 
 241    3:10   0.00   44.8    73    4.1    38     4.8   735.0    0.00 
 241    3:20   0.00   44.6    73    3.3    42     4.2   735.0    0.00 
 241    3:30   0.00   44.2    74    3.8    39     5.4   735.0    0.00 
 241    3:40   0.00   44.1    74    3.5    46     5.4   735.0    0.00 
 241    3:50   0.00   43.8    75    3.4    45     4.8   735.1    0.00 
 241    4:00   0.00   43.8    74    4.0    36     5.4   735.0    0.00 
 241    4:10   0.00   43.6    75    2.3    43     3.6   735.0    0.00 
 241    4:20   0.00   43.9    75    3.0    47     4.2   735.0    0.00 
 241    4:30   0.00   43.6    75    2.9    31     4.2   735.0    0.00 
 241    4:40   0.00   43.3    76    2.8    46     3.6   735.1    0.00 
 241    4:50   0.00   43.4    76    3.1    58     4.2   735.2    0.00 
 241    5:00   0.00   43.2    76    4.1    31     4.8   735.2    0.00 
 241    5:10   0.00   42.7    78    3.2    58     4.8   735.2    0.00 
 241    5:20   0.00   42.6    78    2.6    58     4.2   735.2    0.00 
 241    5:30   0.00   42.6    77    2.5    48     4.2   735.2    0.00 
 241    5:40   0.00   42.2    78    2.1    54     3.6   735.3    0.00 
 241    5:50   0.01   42.4    78    3.3    43     4.2   735.4    0.00 
 241    6:00   0.01   42.3    78    3.1    35     4.2   735.4    0.00 
 241    6:10   0.01   42.2    80    1.7    71     3.0   735.5    0.00 
 241    6:20   0.01   41.8    80    3.4    35     5.4   735.5    0.00 
 241    6:30   0.01   42.1    80    4.3    41     4.8   735.7    0.00 
 241    6:40   0.03   42.4    80    4.5    37     5.4   735.7    0.00 
 241    6:50   0.19   44.8    76    4.0    37     5.4   735.7    0.00 
 241    7:00   0.22   48.5    70    2.7    39     4.2   735.8    0.00 
 241    7:10   0.26   51.5    62    2.0    10     3.0   735.8    0.00 
 241    7:20   0.29   53.4    60    2.2    40     3.0   735.8    0.00 
 241    7:30   0.33   55.6    58    1.6    38     3.0   735.8    0.00 
 241    7:40   0.36   58.2    52    0.6   107     1.8   735.9    0.00 
 241    7:50   0.40   56.5    56    2.2   200     4.2   736.0    0.00 
 241    8:00   0.43   55.7    55    2.1   177     3.6   736.0    0.00 
 241    8:10   0.47   57.6    49    1.8   144     3.0   736.0    0.00 
 241    8:20   0.50   59.5    47    1.6   115     3.6   736.0    0.00 
 241    8:30   0.53   60.6    43    2.9   299     6.6   736.0    0.00 
 241    8:40   0.56   60.2    44    3.3   252     6.0   736.0    0.00 
 241    8:50   0.59   59.8    46    2.8   230     6.0   736.0    0.00 
 241    9:00   0.62   60.1    44    2.9   241     6.6   736.0    0.00 
 241    9:10   0.65   61.7    38    2.3   349     4.8   736.0    0.00 
 241    9:20   0.68   62.6    40    2.6   268     7.2   735.9    0.00 
 241    9:30   0.71   62.0    41    3.4   174     6.0   736.0    0.00 
 241    9:40   0.74   61.2    42    4.3   153     7.8   735.9    0.00 
 241    9:50   0.76   60.9    41    5.2   197     7.8   735.8    0.00 
 241   10:00   0.78   61.8    40    3.5   215     7.8   735.8    0.00 
 241   10:10   0.81   62.5    35    3.0   200     6.6   735.8    0.00 
 241   10:20   0.82   63.1    38    3.8   185     7.2   735.7    0.00 
 241   10:30   0.85   63.4    35    5.1   198     8.4   735.7    0.00 
 241   10:40   0.86   63.6    32    3.6   197     7.8   735.7    0.00 
 241   10:50   0.88   64.1    34    4.4   213     9.6   735.7    0.00 
 241   11:00   0.89   63.9    34    4.1   284     7.8   735.6    0.00 
 241   11:10   0.88   64.5    34    5.8   250     9.6   735.6    0.00 
 241   11:20   0.93   65.0    34    4.7   253    11.3   735.5    0.00 
 241   11:30   0.78   64.2    36    6.0   203    11.3   735.4    0.00 
 241   11:40   0.77   63.1    39    5.7   161     9.6   735.4    0.00 
 241   11:50   0.95   64.4    38    5.8   162    10.8   735.4    0.00 
 241   12:00   0.95   64.6    38    4.5   159     8.4   735.3    0.00 
 241   12:10   0.66   64.3    38    5.9   166    10.8   735.4    0.00 
 241   12:20   0.96   64.2    40    5.6   157    11.9   735.4    0.00 
 241   12:30   0.95   65.4    40    7.5   153    13.7   735.2    0.00 
 241   12:40   0.45   63.5    41    5.9   156    11.9   735.2    0.00 
 241   12:50   0.80   64.3    40    5.7   142    11.9   735.2    0.00 
 241   13:00   0.97   65.0    43    7.7   155    12.5   735.1    0.00 
 241   13:10   0.51   64.2    42    6.8   157    11.3   735.1    0.00 
 241   13:20   0.80   64.3    42    6.7   151    11.3   735.1    0.00 
 241   13:30   0.67   64.8    41    5.1   139     9.0   735.0    0.00 
 241   13:40   0.95   66.3    40    5.6   147    13.7   735.0    0.00 
 241   13:50   0.87   66.7    38    5.6   136    10.2   734.8    0.00 
 241   14:00   0.90   66.8    39    6.3   156    12.5   734.7    0.00 
 241   14:10   0.85   66.9    38    5.8   153     9.0   734.7    0.00 
 241   14:20   0.86   67.4    39    5.7   154    10.8   734.6    0.00 
 241   14:30   0.85   67.9    36    6.3   186    10.2   734.7    0.00 
 241   14:40   0.82   67.7    34    4.1   206     7.8   734.7    0.00 
 241   14:50   0.78   68.5    35    5.2   220     8.4   734.6    0.00 
 241   15:00   0.65   68.3    33    4.7   196     8.4   734.6    0.00 
 241   15:10   0.42   68.0    34    4.0   204     8.4   734.6    0.00 
 241   15:20   0.19   65.2    38    3.3   134     6.0   734.5    0.00 
 241   15:30   0.19   64.5    40    3.1   123     6.6   734.4    0.00 
 241   15:40   0.47   66.4    38    4.8   133     9.6   734.2    0.00 
 241   15:50   0.50   66.1    37    5.4   147     9.0   734.3    0.00 
 241   16:00   0.65   68.3    35    5.3   178     9.0   734.3    0.00 
 241   16:10   0.57   68.8    33    5.8   189    17.9   734.3    0.00 
 241   16:20   0.51   69.0    30    4.8   195     8.4   734.4    0.00 
 241   16:30   0.45   68.9    29    4.5   199     7.2   734.5    0.00 
 241   16:40   0.38   68.4    30    3.2   182     6.0   734.5    0.00 
 241   16:50   0.40   68.2    31    4.3   176     7.8   734.4    0.00 
 241   17:00   0.38   68.3    29    4.1   199     8.4   734.4    0.00 
 241   17:10   0.34   69.3    26    3.6   227     6.6   734.4    0.00 
 241   17:20   0.30   68.6    26    4.1   237     9.0   734.4    0.00 

Return to Valle Toledo, Valles Caldera graphs page.


Western Regional Climate Center,wrcc@dri.edu